Birmingham-Shuttlesworth International Airport
KBHM : now visible

Airfield :











YOU CAN JOIN US ON...

 
LOGIN :

Register | Disclaimer

   EN    FR    IT 

 









Legend :    VFR   Marginal VFR   IFR   Intensive IFR   Very Intensive IFR
Visi :
Ceiling :
>= 8 km
>= 3000ft
5 to 8 km
1000 to 3000 ft
1500m to 5 km
500 to 1000 ft
800 to 1500m
200 to 500 ft
< 800m
< 200 ft
Symbols :   Thunderstorms  Fog  Heavy snow  Heavy precipitations  Wind > 20 kt






- Airport Elevation : 650 ft
- IATA code : BHM


KBHM - Birmingham-Shuttlesworth International

CURRENT METAR :
  • 251926Z 20016G22KT 7SM FEW013 SCT019 BKN070 21/17 A2986 RMK AO2 RAE1854 P0000 T02060172

EXPIRED METARs :
  • 251859Z 20010KT 7SM SCT010 OVC016 19/17 A2988 RMK AO2 RAE54 P0000 T01940172
  • 251831Z 20007KT 6SM -RA BR OVC009 18/17 A2989 RMK AO2 CIG 006V012 P0000 T01830172
  • 251813Z 18004KT 6SM -RA BR OVC010 18/17 A2989 RMK AO2 CIG 006V013 P0000 T01830167
  • 251800Z 16003KT 6SM -RA BR OVC009 18/17 A2988 RMK AO2 P0000 T01780167
  • 251746Z 17004KT 2SM -RA BR BKN007 OVC012 18/17 A2989 RMK AO2 RAE15B21 P0003 T01780167
  • 251720Z 20004KT 2SM BR SCT005 BKN014 OVC020 18/16 A2990 RMK AO2 RAE15 P0001 T01780161
  • 251702Z 22004KT 2SM -RA BR BKN005 OVC009 17/17 A2992 RMK AO2 P0001 T01720167
  • 251653Z 22006KT 1 1/4SM -RA BR BKN005 OVC011 17/16 A2992 RMK AO2 DZE46RAB46 SLP129 P0003 T01720161

TAF KBHM
Valid from the 25 at 18:00 until the 26 at 18:00 UTC


251731Z 2518/2618 20008G18KT P6SM VCSH BKN005
FM260000 18010G20KT 6SM SHRA BR VCTS OVC015CB
FM260300 19012G24KT 5SM SHRA BR OVC005
PROB30 2603/2609 3SM TSRA BR OVC002CB
FM260900 26010KT 6SM BR BKN015
PROB30 2609/2615 4SM -SHRA BR OVC005
FM261700 29009KT P6SM SCT040
KZTL FIR / North America



MET'MAP, your aeronautical weather chart ! - Copyright ORBIFLY December 2007 - Disclaimer

ORBIFLY MET'MAP TEAM :

Programming & Development : Alexandra Zaïnal
Concept & original design : Baudouin d'Aumeries
Assistance for programming : Marc-Olivier Méhu
Technical & hardware support : Manuel Goepfert

Contact : metmap@orbifly.com




SOURCES & CREDITS :

   NOAA       Earth
Advisory